sensor_id;sensor_type;location;lat;lon;timestamp;pressure;altitude;pressure_sealevel;temperature;humidity
49311;BME280;35177;45.900;5.946;2022-10-23T00:00:58;97641.16;;;9.62;100.00
49311;BME280;35177;45.900;5.946;2022-10-23T00:03:23;97641.59;;;9.55;100.00
49311;BME280;35177;45.900;5.946;2022-10-23T00:05:49;97634.72;;;9.67;100.00
49311;BME280;35177;45.900;5.946;2022-10-23T00:08:14;97636.03;;;9.69;100.00
49311;BME280;35177;45.900;5.946;2022-10-23T00:10:41;97631.22;;;9.61;100.00
49311;BME280;35177;45.900;5.946;2022-10-23T00:13:07;97627.94;;;9.73;100.00
49311;BME280;35177;45.900;5.946;2022-10-23T00:15:34;97630.81;;;9.68;100.00
49311;BME280;35177;45.900;5.946;2022-10-23T00:18:00;97632.66;;;9.58;100.00
49311;BME280;35177;45.900;5.946;2022-10-23T00:20:25;97632.88;;;9.48;100.00
49311;BME280;35177;45.900;5.946;2022-10-23T00:22:51;97635.13;;;9.60;100.00
49311;BME280;35177;45.900;5.946;2022-10-23T00:25:16;97634.19;;;9.64;100.00
49311;BME280;35177;45.900;5.946;2022-10-23T00:27:43;97629.78;;;9.77;100.00
49311;BME280;35177;45.900;5.946;2022-10-23T00:30:09;97627.75;;;9.55;100.00
49311;BME280;35177;45.900;5.946;2022-10-23T00:32:34;97628.06;;;9.54;100.00
49311;BME280;35177;45.900;5.946;2022-10-23T00:35:00;97636.56;;;9.43;100.00
49311;BME280;35177;45.900;5.946;2022-10-23T00:37:25;97632.44;;;9.41;100.00
49311;BME280;35177;45.900;5.946;2022-10-23T00:39:51;97634.31;;;9.45;100.00
49311;BME280;35177;45.900;5.946;2022-10-23T00:42:18;97634.41;;;9.40;100.00
49311;BME280;35177;45.900;5.946;2022-10-23T00:47:11;97639.53;;;9.47;100.00
49311;BME280;35177;45.900;5.946;2022-10-23T00:49:37;97637.59;;;9.61;100.00
49311;BME280;35177;45.900;5.946;2022-10-23T00:52:06;97644.03;;;9.57;100.00
49311;BME280;35177;45.900;5.946;2022-10-23T00:54:33;97640.53;;;9.51;100.00
49311;BME280;35177;45.900;5.946;2022-10-23T00:57:02;97642.72;;;9.40;100.00
49311;BME280;35177;45.900;5.946;2022-10-23T00:59:28;97646.72;;;9.34;100.00
49311;BME280;35177;45.900;5.946;2022-10-23T01:01:55;97648.75;;;9.14;100.00
49311;BME280;35177;45.900;5.946;2022-10-23T01:04:20;97650.06;;;9.17;100.00
49311;BME280;35177;45.900;5.946;2022-10-23T01:07:11;97628.72;;;9.18;100.00
49311;BME280;35177;45.900;5.946;2022-10-23T01:09:46;97629.78;;;9.36;100.00
49311;BME280;35177;45.900;5.946;2022-10-23T01:12:29;97643.84;;;9.39;100.00
49311;BME280;35177;45.900;5.946;2022-10-23T01:15:22;97645.88;;;9.33;100.00
49311;BME280;35177;45.900;5.946;2022-10-23T01:17:55;97634.69;;;9.25;100.00
49311;BME280;35177;45.900;5.946;2022-10-23T01:26:26;97630.50;;;9.27;100.00
49311;BME280;35177;45.900;5.946;2022-10-23T01:32:20;97624.53;;;9.20;100.00
49311;BME280;35177;45.900;5.946;2022-10-23T01:35:11;97623.81;;;9.28;100.00
49311;BME280;35177;45.900;5.946;2022-10-23T01:37:44;97615.53;;;9.28;100.00
49311;BME280;35177;45.900;5.946;2022-10-23T01:40:17;97615.53;;;9.28;100.00
49311;BME280;35177;45.900;5.946;2022-10-23T01:42:49;97606.47;;;9.23;100.00
49311;BME280;35177;45.900;5.946;2022-10-23T01:45:26;97602.16;;;9.16;100.00
49311;BME280;35177;45.900;5.946;2022-10-23T01:47:53;97601.75;;;9.09;100.00
49311;BME280;35177;45.900;5.946;2022-10-23T01:50:20;97600.41;;;9.07;100.00
49311;BME280;35177;45.900;5.946;2022-10-23T01:52:46;97604.94;;;9.16;100.00
49311;BME280;35177;45.900;5.946;2022-10-23T01:55:13;97598.59;;;9.16;100.00
49311;BME280;35177;45.900;5.946;2022-10-23T01:57:41;97598.88;;;9.00;100.00
49311;BME280;35177;45.900;5.946;2022-10-23T02:00:15;97593.69;;;8.80;100.00
49311;BME280;35177;45.900;5.946;2022-10-23T02:02:42;97591.34;;;8.73;100.00
49311;BME280;35177;45.900;5.946;2022-10-23T02:05:14;97582.97;;;8.92;100.00
49311;BME280;35177;45.900;5.946;2022-10-23T02:07:41;97586.59;;;8.74;100.00
49311;BME280;35177;45.900;5.946;2022-10-23T02:10:08;97581.78;;;8.65;100.00
49311;BME280;35177;45.900;5.946;2022-10-23T02:15:12;97582.81;;;8.70;100.00
49311;BME280;35177;45.900;5.946;2022-10-23T02:17:48;97575.38;;;8.84;100.00
49311;BME280;35177;45.900;5.946;2022-10-23T02:20:35;97579.69;;;8.90;100.00
49311;BME280;35177;45.900;5.946;2022-10-23T02:23:14;97575.91;;;8.53;100.00
49311;BME280;35177;45.900;5.946;2022-10-23T02:28:35;97570.75;;;8.46;100.00
49311;BME280;35177;45.900;5.946;2022-10-23T02:31:04;97574.78;;;8.35;100.00
49311;BME280;35177;45.900;5.946;2022-10-23T02:33:34;97573.28;;;8.43;100.00
49311;BME280;35177;45.900;5.946;2022-10-23T02:36:00;97563.88;;;8.44;100.00
49311;BME280;35177;45.900;5.946;2022-10-23T02:38:36;97558.78;;;8.51;100.00
49311;BME280;35177;45.900;5.946;2022-10-23T02:54:56;97542.84;;;8.43;100.00
49311;BME280;35177;45.900;5.946;2022-10-23T02:57:55;97540.97;;;8.24;100.00
49311;BME280;35177;45.900;5.946;2022-10-23T03:00:23;97550.50;;;8.32;100.00
49311;BME280;35177;45.900;5.946;2022-10-23T03:03:01;97559.50;;;8.24;100.00
49311;BME280;35177;45.900;5.946;2022-10-23T03:05:31;97553.91;;;8.10;100.00
49311;BME280;35177;45.900;5.946;2022-10-23T03:07:57;97554.19;;;8.08;100.00
49311;BME280;35177;45.900;5.946;2022-10-23T03:10:22;97549.28;;;8.05;100.00
49311;BME280;35177;45.900;5.946;2022-10-23T03:12:48;97547.78;;;8.13;100.00
49311;BME280;35177;45.900;5.946;2022-10-23T03:15:14;97550.75;;;8.16;100.00
49311;BME280;35177;45.900;5.946;2022-10-23T03:17:40;97547.09;;;8.21;100.00
49311;BME280;35177;45.900;5.946;2022-10-23T03:20:06;97542.38;;;8.22;100.00
49311;BME280;35177;45.900;5.946;2022-10-23T03:22:33;97551.22;;;8.24;100.00
49311;BME280;35177;45.900;5.946;2022-10-23T03:24:58;97541.13;;;8.14;100.00
49311;BME280;35177;45.900;5.946;2022-10-23T03:27:24;97543.53;;;8.01;100.00
49311;BME280;35177;45.900;5.946;2022-10-23T03:29:49;97554.75;;;7.72;100.00
49311;BME280;35177;45.900;5.946;2022-10-23T03:32:15;97551.50;;;7.84;100.00
49311;BME280;35177;45.900;5.946;2022-10-23T03:34:41;97545.84;;;7.75;100.00
49311;BME280;35177;45.900;5.946;2022-10-23T03:37:07;97553.78;;;7.82;100.00
49311;BME280;35177;45.900;5.946;2022-10-23T03:39:32;97551.75;;;8.07;100.00
49311;BME280;35177;45.900;5.946;2022-10-23T03:41:58;97555.09;;;8.03;100.00
49311;BME280;35177;45.900;5.946;2022-10-23T03:44:23;97548.31;;;8.15;100.00
49311;BME280;35177;45.900;5.946;2022-10-23T03:46:49;97552.78;;;8.11;100.00
49311;BME280;35177;45.900;5.946;2022-10-23T03:49:14;97548.13;;;8.06;100.00
49311;BME280;35177;45.900;5.946;2022-10-23T03:51:40;97550.31;;;8.09;100.00
49311;BME280;35177;45.900;5.946;2022-10-23T03:54:08;97546.34;;;8.15;100.00
49311;BME280;35177;45.900;5.946;2022-10-23T03:56:33;97554.88;;;8.19;100.00
49311;BME280;35177;45.900;5.946;2022-10-23T03:58:59;97543.59;;;8.15;100.00
49311;BME280;35177;45.900;5.946;2022-10-23T04:01:24;97541.34;;;8.17;100.00
49311;BME280;35177;45.900;5.946;2022-10-23T04:03:50;97545.22;;;8.16;100.00
49311;BME280;35177;45.900;5.946;2022-10-23T04:06:16;97552.63;;;8.21;100.00
49311;BME280;35177;45.900;5.946;2022-10-23T04:08:42;97552.63;;;8.21;100.00
49311;BME280;35177;45.900;5.946;2022-10-23T04:11:08;97550.09;;;8.25;100.00
49311;BME280;35177;45.900;5.946;2022-10-23T04:13:34;97545.22;;;8.16;100.00
49311;BME280;35177;45.900;5.946;2022-10-23T04:15:59;97552.19;;;8.14;100.00
49311;BME280;35177;45.900;5.946;2022-10-23T04:18:25;97548.69;;;8.08;100.00
49311;BME280;35177;45.900;5.946;2022-10-23T04:20:51;97539.31;;;8.23;100.00
49311;BME280;35177;45.900;5.946;2022-10-23T04:23:16;97545.53;;;8.15;100.00
49311;BME280;35177;45.900;5.946;2022-10-23T04:25:42;97550.00;;;8.11;100.00
49311;BME280;35177;45.900;5.946;2022-10-23T04:28:07;97543.22;;;8.03;100.00
49311;BME280;35177;45.900;5.946;2022-10-23T04:30:33;97542.78;;;7.96;100.00
49311;BME280;35177;45.900;5.946;2022-10-23T04:32:58;97549.13;;;7.77;100.00
49311;BME280;35177;45.900;5.946;2022-10-23T04:35:24;97549.72;;;7.74;100.00
49311;BME280;35177;45.900;5.946;2022-10-23T04:37:50;97552.34;;;7.65;100.00
49311;BME280;35177;45.900;5.946;2022-10-23T04:40:15;97556.44;;;7.68;100.00
49311;BME280;35177;45.900;5.946;2022-10-23T04:42:41;97552.22;;;7.76;100.00
49311;BME280;35177;45.900;5.946;2022-10-23T04:45:06;97559.34;;;7.77;100.00
49311;BME280;35177;45.900;5.946;2022-10-23T04:47:32;97554.13;;;7.75;100.00
49311;BME280;35177;45.900;5.946;2022-10-23T04:49:57;97550.78;;;7.78;100.00
49311;BME280;35177;45.900;5.946;2022-10-23T04:52:23;97546.72;;;7.70;100.00
49311;BME280;35177;45.900;5.946;2022-10-23T04:54:48;97546.69;;;7.76;100.00
49311;BME280;35177;45.900;5.946;2022-10-23T04:57:14;97550.78;;;7.78;100.00
49311;BME280;35177;45.900;5.946;2022-10-23T04:59:39;97552.13;;;7.81;100.00
49311;BME280;35177;45.900;5.946;2022-10-23T05:02:05;97556.47;;;7.87;100.00
49311;BME280;35177;45.900;5.946;2022-10-23T05:04:30;97552.19;;;7.95;100.00
49311;BME280;35177;45.900;5.946;2022-10-23T05:06:56;97549.66;;;7.98;100.00
49311;BME280;35177;45.900;5.946;2022-10-23T05:09:21;97548.22;;;8.01;100.00
49311;BME280;35177;45.900;5.946;2022-10-23T05:11:47;97548.22;;;8.01;100.00
49311;BME280;35177;45.900;5.946;2022-10-23T05:14:13;97539.72;;;8.16;100.00
49311;BME280;35177;45.900;5.946;2022-10-23T05:16:45;97549.13;;;8.15;100.00
49311;BME280;35177;45.900;5.946;2022-10-23T05:19:17;97542.16;;;8.18;100.00
49311;BME280;35177;45.900;5.946;2022-10-23T05:21:46;97537.44;;;8.18;100.00
49311;BME280;35177;45.900;5.946;2022-10-23T05:24:13;97545.91;;;8.27;100.00
49311;BME280;35177;45.900;5.946;2022-10-23T05:26:38;97541.91;;;8.33;100.00
49311;BME280;35177;45.900;5.946;2022-10-23T05:29:04;97546.41;;;8.29;100.00
49311;BME280;35177;45.900;5.946;2022-10-23T05:31:30;97541.69;;;8.30;100.00
49311;BME280;35177;45.900;5.946;2022-10-23T05:33:58;97542.03;;;8.09;100.00
49311;BME280;35177;45.900;5.946;2022-10-23T05:36:25;97546.75;;;8.09;100.00
49311;BME280;35177;45.900;5.946;2022-10-23T05:38:51;97552.41;;;8.17;100.00
49311;BME280;35177;45.900;5.946;2022-10-23T05:41:17;97546.66;;;8.14;100.00
49311;BME280;35177;45.900;5.946;2022-10-23T05:43:43;97553.63;;;8.11;100.00
49311;BME280;35177;45.900;5.946;2022-10-23T05:46:10;97548.09;;;8.11;100.00
49311;BME280;35177;45.900;5.946;2022-10-23T05:48:36;97542.94;;;8.04;100.00
49311;BME280;35177;45.900;5.946;2022-10-23T05:51:05;97555.31;;;8.07;100.00
49311;BME280;35177;45.900;5.946;2022-10-23T05:53:31;97561.28;;;8.14;100.00
49311;BME280;35177;45.900;5.946;2022-10-23T05:56:05;97552.91;;;8.19;100.00
49311;BME280;35177;45.900;5.946;2022-10-23T05:58:31;97554.41;;;8.31;100.00
49311;BME280;35177;45.900;5.946;2022-10-23T06:00:57;97538.63;;;8.31;100.00
49311;BME280;35177;45.900;5.946;2022-10-23T06:03:22;97538.09;;;8.29;100.00
49311;BME280;35177;45.900;5.946;2022-10-23T06:05:49;97541.84;;;8.39;100.00
49311;BME280;35177;45.900;5.946;2022-10-23T06:08:14;97547.22;;;8.30;100.00
49311;BME280;35177;45.900;5.946;2022-10-23T06:10:40;97539.16;;;8.33;100.00
49311;BME280;35177;45.900;5.946;2022-10-23T06:13:05;97533.63;;;8.33;100.00
49311;BME280;35177;45.900;5.946;2022-10-23T06:15:31;97523.38;;;8.34;100.00
49311;BME280;35177;45.900;5.946;2022-10-23T06:18:05;97535.09;;;8.45;100.00
49311;BME280;35177;45.900;5.946;2022-10-23T06:20:34;97539.28;;;8.42;100.00
49311;BME280;35177;45.900;5.946;2022-10-23T06:23:01;97532.41;;;8.40;100.00
49311;BME280;35177;45.900;5.946;2022-10-23T06:25:26;97517.84;;;8.53;100.00
49311;BME280;35177;45.900;5.946;2022-10-23T06:27:52;97522.84;;;8.51;100.00
49311;BME280;35177;45.900;5.946;2022-10-23T06:30:17;97521.63;;;8.57;100.00
49311;BME280;35177;45.900;5.946;2022-10-23T06:32:43;97519.28;;;8.64;100.00
49311;BME280;35177;45.900;5.946;2022-10-23T06:35:08;97523.59;;;8.71;100.00
49311;BME280;35177;45.900;5.946;2022-10-23T06:37:34;97524.94;;;8.73;100.00
49311;BME280;35177;45.900;5.946;2022-10-23T06:39:59;97530.69;;;8.77;100.00
49311;BME280;35177;45.900;5.946;2022-10-23T06:42:25;97525.34;;;8.80;100.00
49311;BME280;35177;45.900;5.946;2022-10-23T06:44:50;97527.09;;;8.76;100.00
49311;BME280;35177;45.900;5.946;2022-10-23T06:47:16;97534.56;;;8.76;100.00
49311;BME280;35177;45.900;5.946;2022-10-23T06:49:41;97540.09;;;8.90;100.00
49311;BME280;35177;45.900;5.946;2022-10-23T06:52:07;97533.28;;;9.01;100.00
49311;BME280;35177;45.900;5.946;2022-10-23T06:54:32;97527.00;;;8.95;100.00
49311;BME280;35177;45.900;5.946;2022-10-23T06:56:58;97529.25;;;8.79;100.00
49311;BME280;35177;45.900;5.946;2022-10-23T06:59:23;97526.16;;;8.81;100.00
49311;BME280;35177;45.900;5.946;2022-10-23T07:01:49;97537.53;;;8.79;100.00
49311;BME280;35177;45.900;5.946;2022-10-23T07:04:15;97521.69;;;8.85;100.00
49311;BME280;35177;45.900;5.946;2022-10-23T07:06:41;97533.97;;;8.93;100.00
49311;BME280;35177;45.900;5.946;2022-10-23T07:09:07;97528.66;;;8.96;100.00
49311;BME280;35177;45.900;5.946;2022-10-23T07:11:33;97530.28;;;8.97;100.00
49311;BME280;35177;45.900;5.946;2022-10-23T07:13:58;97539.41;;;8.98;100.00
49311;BME280;35177;45.900;5.946;2022-10-23T07:16:26;97535.19;;;9.00;100.00
49311;BME280;35177;45.900;5.946;2022-10-23T07:18:55;97531.09;;;8.98;100.00
49311;BME280;35177;45.900;5.946;2022-10-23T07:21:25;97535.81;;;9.11;100.00
49311;BME280;35177;45.900;5.946;2022-10-23T07:23:51;97529.06;;;9.18;100.00
49311;BME280;35177;45.900;5.946;2022-10-23T07:26:16;97534.47;;;9.23;100.00
49311;BME280;35177;45.900;5.946;2022-10-23T07:28:44;97525.56;;;9.26;100.00
49311;BME280;35177;45.900;5.946;2022-10-23T07:31:11;97528.94;;;9.37;100.00
49311;BME280;35177;45.900;5.946;2022-10-23T07:33:37;97526.88;;;9.42;100.00
49311;BME280;35177;45.900;5.946;2022-10-23T07:36:04;97519.28;;;9.48;100.00
49311;BME280;35177;45.900;5.946;2022-10-23T07:38:30;97518.16;;;9.49;100.00
49311;BME280;35177;45.900;5.946;2022-10-23T07:40:56;97514.03;;;9.60;100.00
49311;BME280;35177;45.900;5.946;2022-10-23T07:43:22;97530.84;;;9.64;100.00
49311;BME280;35177;45.900;5.946;2022-10-23T07:45:49;97519.44;;;9.65;100.00
49311;BME280;35177;45.900;5.946;2022-10-23T07:48:15;97520.97;;;9.72;100.00
49311;BME280;35177;45.900;5.946;2022-10-23T07:50:40;97522.50;;;9.78;100.00
49311;BME280;35177;45.900;5.946;2022-10-23T07:53:06;97522.28;;;9.88;100.00
49311;BME280;35177;45.900;5.946;2022-10-23T07:55:31;97517.81;;;10.01;100.00
49311;BME280;35177;45.900;5.946;2022-10-23T07:57:58;97518.91;;;10.14;100.00
49311;BME280;35177;45.900;5.946;2022-10-23T08:00:24;97526.63;;;10.26;100.00
49311;BME280;35177;45.900;5.946;2022-10-23T08:02:51;97519.44;;;10.39;100.00
49311;BME280;35177;45.900;5.946;2022-10-23T08:05:18;97512.97;;;10.29;100.00
49311;BME280;35177;45.900;5.946;2022-10-23T08:07:44;97504.78;;;10.24;100.00
49311;BME280;35177;45.900;5.946;2022-10-23T08:10:09;97515.88;;;10.24;100.00
49311;BME280;35177;45.900;5.946;2022-10-23T08:12:36;97505.97;;;10.32;100.00
49311;BME280;35177;45.900;5.946;2022-10-23T08:15:02;97521.13;;;10.49;100.00
49311;BME280;35177;45.900;5.946;2022-10-23T08:17:28;97519.66;;;10.51;100.00
49311;BME280;35177;45.900;5.946;2022-10-23T08:19:54;97529.69;;;10.61;100.00
49311;BME280;35177;45.900;5.946;2022-10-23T08:22:19;97533.97;;;10.67;100.00
49311;BME280;35177;45.900;5.946;2022-10-23T08:24:45;97534.28;;;10.66;100.00
49311;BME280;35177;45.900;5.946;2022-10-23T08:27:10;97516.84;;;10.74;100.00
49311;BME280;35177;45.900;5.946;2022-10-23T08:29:35;97501.91;;;10.92;100.00
49311;BME280;35177;45.900;5.946;2022-10-23T08:32:01;97491.16;;;11.00;100.00
49311;BME280;35177;45.900;5.946;2022-10-23T08:34:26;97498.00;;;10.93;100.00
49311;BME280;35177;45.900;5.946;2022-10-23T08:36:52;97495.75;;;11.04;100.00
49311;BME280;35177;45.900;5.946;2022-10-23T08:39:18;97496.59;;;11.05;100.00
49311;BME280;35177;45.900;5.946;2022-10-23T08:41:52;97497.25;;;11.11;100.00
49311;BME280;35177;45.900;5.946;2022-10-23T08:44:31;97498.41;;;11.18;100.00
49311;BME280;35177;45.900;5.946;2022-10-23T08:47:12;97504.44;;;11.12;100.00
49311;BME280;35177;45.900;5.946;2022-10-23T08:49:54;97499.44;;;10.91;100.00
49311;BME280;35177;45.900;5.946;2022-10-23T08:52:32;97509.00;;;11.07;100.00
49311;BME280;35177;45.900;5.946;2022-10-23T08:57:36;97493.00;;;11.13;100.00
49311;BME280;35177;45.900;5.946;2022-10-23T09:00:12;97500.38;;;11.18;100.00
49311;BME280;35177;45.900;5.946;2022-10-23T09:05:26;97489.97;;;11.32;100.00
49311;BME280;35177;45.900;5.946;2022-10-23T09:19:07;97489.19;;;11.49;100.00
49311;BME280;35177;45.900;5.946;2022-10-23T09:21:34;97472.50;;;11.49;100.00
49311;BME280;35177;45.900;5.946;2022-10-23T09:24:00;97476.06;;;11.32;100.00
49311;BME280;35177;45.900;5.946;2022-10-23T09:26:25;97470.34;;;11.29;100.00
49311;BME280;35177;45.900;5.946;2022-10-23T09:28:56;97485.88;;;11.38;100.00
49311;BME280;35177;45.900;5.946;2022-10-23T09:31:26;97481.81;;;11.53;100.00
49311;BME280;35177;45.900;5.946;2022-10-23T09:33:57;97482.31;;;11.55;100.00
49311;BME280;35177;45.900;5.946;2022-10-23T09:36:24;97477.56;;;11.56;100.00
49311;BME280;35177;45.900;5.946;2022-10-23T09:38:54;97474.47;;;11.57;100.00
49311;BME280;35177;45.900;5.946;2022-10-23T09:41:26;97482.97;;;11.70;100.00
49311;BME280;35177;45.900;5.946;2022-10-23T09:44:23;97477.91;;;11.81;100.00
49311;BME280;35177;45.900;5.946;2022-10-23T09:46:52;97485.28;;;11.85;100.00
49311;BME280;35177;45.900;5.946;2022-10-23T09:49:32;97477.59;;;11.91;100.00
49311;BME280;35177;45.900;5.946;2022-10-23T09:54:44;97483.19;;;12.09;100.00
49311;BME280;35177;45.900;5.946;2022-10-23T09:59:42;97489.25;;;12.19;100.00
49311;BME280;35177;45.900;5.946;2022-10-23T10:02:20;97486.78;;;12.18;100.00
49311;BME280;35177;45.900;5.946;2022-10-23T10:04:50;97473.84;;;12.31;100.00
49311;BME280;35177;45.900;5.946;2022-10-23T10:07:24;97489.69;;;12.39;100.00
49311;BME280;35177;45.900;5.946;2022-10-23T10:09:52;97481.97;;;12.45;100.00
49311;BME280;35177;45.900;5.946;2022-10-23T10:22:52;97487.69;;;12.66;100.00
49311;BME280;35177;45.900;5.946;2022-10-23T10:25:21;97494.22;;;12.70;100.00
49311;BME280;35177;45.900;5.946;2022-10-23T10:31:14;97496.72;;;12.54;100.00
49311;BME280;35177;45.900;5.946;2022-10-23T10:33:55;97485.53;;;12.63;100.00
49311;BME280;35177;45.900;5.946;2022-10-23T10:38:59;97481.06;;;12.79;100.00
49311;BME280;35177;45.900;5.946;2022-10-23T10:41:38;97477.97;;;12.81;100.00
49311;BME280;35177;45.900;5.946;2022-10-23T10:46:38;97463.81;;;12.95;100.00
49311;BME280;35177;45.900;5.946;2022-10-23T10:55:13;97470.28;;;13.16;100.00
49311;BME280;35177;45.900;5.946;2022-10-23T10:57:45;97459.56;;;13.27;100.00
49311;BME280;35177;45.900;5.946;2022-10-23T11:00:19;97447.69;;;13.39;100.00
49311;BME280;35177;45.900;5.946;2022-10-23T11:02:47;97448.84;;;13.38;100.00
49311;BME280;35177;45.900;5.946;2022-10-23T11:07:53;97456.84;;;13.48;100.00
49311;BME280;35177;45.900;5.946;2022-10-23T11:10:20;97451.41;;;13.52;100.00
49311;BME280;35177;45.900;5.946;2022-10-23T11:12:47;97456.13;;;13.52;100.00
49311;BME280;35177;45.900;5.946;2022-10-23T11:15:39;97455.81;;;13.53;100.00
49311;BME280;35177;45.900;5.946;2022-10-23T11:18:24;97451.91;;;13.45;100.00
49311;BME280;35177;45.900;5.946;2022-10-23T11:32:17;97435.75;;;13.81;100.00
49311;BME280;35177;45.900;5.946;2022-10-23T11:37:28;97430.03;;;13.77;100.00
49311;BME280;35177;45.900;5.946;2022-10-23T11:42:45;97427.72;;;13.58;100.00
49311;BME280;35177;45.900;5.946;2022-10-23T11:56:00;97410.38;;;13.95;100.00
49311;BME280;35177;45.900;5.946;2022-10-23T11:58:40;97406.34;;;14.05;100.00
49311;BME280;35177;45.900;5.946;2022-10-23T12:04:24;97402.59;;;14.01;100.00
49311;BME280;35177;45.900;5.946;2022-10-23T12:07:00;97400.09;;;13.87;100.00
49311;BME280;35177;45.900;5.946;2022-10-23T12:14:37;97379.25;;;14.05;100.00
49311;BME280;35177;45.900;5.946;2022-10-23T12:22:18;97359.94;;;14.00;100.00
49311;BME280;35177;45.900;5.946;2022-10-23T12:25:04;97352.38;;;14.13;100.00
49311;BME280;35177;45.900;5.946;2022-10-23T12:38:23;97339.03;;;14.19;100.00
49311;BME280;35177;45.900;5.946;2022-10-23T12:40:55;97346.00;;;14.12;100.00
49311;BME280;35177;45.900;5.946;2022-10-23T12:43:30;97339.38;;;14.05;100.00
49311;BME280;35177;45.900;5.946;2022-10-23T12:48:53;97333.88;;;14.08;100.00
49311;BME280;35177;45.900;5.946;2022-10-23T12:51:33;97322.53;;;14.13;100.00
49311;BME280;35177;45.900;5.946;2022-10-23T12:54:00;97322.53;;;14.26;100.00
49311;BME280;35177;45.900;5.946;2022-10-23T12:56:32;97317.22;;;14.33;100.00
49311;BME280;35177;45.900;5.946;2022-10-23T12:58:58;97325.78;;;14.28;100.00
49311;BME280;35177;45.900;5.946;2022-10-23T13:01:31;97326.00;;;14.23;100.00
49311;BME280;35177;45.900;5.946;2022-10-23T13:06:37;97308.22;;;14.27;100.00
49311;BME280;35177;45.900;5.946;2022-10-23T13:09:05;97302.16;;;14.25;100.00
49311;BME280;35177;45.900;5.946;2022-10-23T13:11:32;97289.28;;;14.21;100.00
49311;BME280;35177;45.900;5.946;2022-10-23T13:13:58;97292.75;;;14.18;100.00
49311;BME280;35177;45.900;5.946;2022-10-23T13:16:24;97287.88;;;14.14;100.00
49311;BME280;35177;45.900;5.946;2022-10-23T13:18:50;97292.50;;;14.10;100.00
49311;BME280;35177;45.900;5.946;2022-10-23T13:21:26;97280.97;;;14.00;100.00
49311;BME280;35177;45.900;5.946;2022-10-23T13:23:55;97284.13;;;14.10;100.00
49311;BME280;35177;45.900;5.946;2022-10-23T13:28:54;97273.94;;;14.14;100.00
49311;BME280;35177;45.900;5.946;2022-10-23T13:31:30;97281.59;;;14.18;100.00
49311;BME280;35177;45.900;5.946;2022-10-23T13:36:27;97259.72;;;14.20;100.00
49311;BME280;35177;45.900;5.946;2022-10-23T13:41:42;97262.28;;;14.25;100.00
49311;BME280;35177;45.900;5.946;2022-10-23T13:44:13;97272.19;;;14.22;100.00
49311;BME280;35177;45.900;5.946;2022-10-23T13:46:39;97259.97;;;14.27;100.00
49311;BME280;35177;45.900;5.946;2022-10-23T13:49:05;97262.75;;;14.27;100.00
49311;BME280;35177;45.900;5.946;2022-10-23T13:51:35;97237.84;;;14.22;100.00
49311;BME280;35177;45.900;5.946;2022-10-23T13:54:08;97237.84;;;14.22;100.00
49311;BME280;35177;45.900;5.946;2022-10-23T13:56:37;97241.34;;;14.19;100.00
49311;BME280;35177;45.900;5.946;2022-10-23T13:59:02;97239.47;;;14.23;100.00
49311;BME280;35177;45.900;5.946;2022-10-23T14:01:31;97244.38;;;14.13;100.00
49311;BME280;35177;45.900;5.946;2022-10-23T14:03:57;97233.91;;;14.10;100.00
49311;BME280;35177;45.900;5.946;2022-10-23T14:06:23;97238.56;;;14.06;100.00
49311;BME280;35177;45.900;5.946;2022-10-23T14:08:49;97238.31;;;14.11;100.00
49311;BME280;35177;45.900;5.946;2022-10-23T14:11:16;97239.03;;;14.21;100.00
49311;BME280;35177;45.900;5.946;2022-10-23T14:13:42;97239.16;;;14.37;100.00
49311;BME280;35177;45.900;5.946;2022-10-23T14:16:09;97239.47;;;14.35;100.00
49311;BME280;35177;45.900;5.946;2022-10-23T14:18:35;97233.78;;;14.44;100.00
49311;BME280;35177;45.900;5.946;2022-10-23T14:21:02;97239.94;;;14.50;100.00
49311;BME280;35177;45.900;5.946;2022-10-23T14:23:28;97234.38;;;14.50;100.00
49311;BME280;35177;45.900;5.946;2022-10-23T14:26:03;97233.78;;;14.44;100.00
49311;BME280;35177;45.900;5.946;2022-10-23T14:28:29;97239.03;;;14.45;100.00
49311;BME280;35177;45.900;5.946;2022-10-23T14:30:54;97238.31;;;14.36;100.00
49311;BME280;35177;45.900;5.946;2022-10-23T14:33:21;97240.44;;;14.39;100.00
49311;BME280;35177;45.900;5.946;2022-10-23T14:35:49;97244.03;;;14.40;100.00
49311;BME280;35177;45.900;5.946;2022-10-23T14:38:14;97243.09;;;14.36;100.00
49311;BME280;35177;45.900;5.946;2022-10-23T14:40:40;97246.34;;;14.38;100.00
49311;BME280;35177;45.900;5.946;2022-10-23T14:43:05;97249.84;;;14.35;100.00
49311;BME280;35177;45.900;5.946;2022-10-23T14:45:31;97239.03;;;14.33;100.00
49311;BME280;35177;45.900;5.946;2022-10-23T14:47:57;97252.28;;;14.36;100.00
49311;BME280;35177;45.900;5.946;2022-10-23T14:50:25;97253.44;;;14.35;100.00
49311;BME280;35177;45.900;5.946;2022-10-23T14:53:28;97247.53;;;14.37;100.00
49311;BME280;35177;45.900;5.946;2022-10-23T14:59:15;97239.03;;;14.33;100.00
49311;BME280;35177;45.900;5.946;2022-10-23T15:01:43;97238.22;;;14.33;100.00
49311;BME280;35177;45.900;5.946;2022-10-23T15:04:08;97243.91;;;14.36;100.00
49311;BME280;35177;45.900;5.946;2022-10-23T15:06:34;97264.59;;;14.48;100.00
49311;BME280;35177;45.900;5.946;2022-10-23T15:09:01;97271.13;;;14.52;100.00
49311;BME280;35177;45.900;5.946;2022-10-23T15:11:26;97274.50;;;14.57;100.00
49311;BME280;35177;45.900;5.946;2022-10-23T15:13:52;97284.50;;;14.58;100.00
49311;BME280;35177;45.900;5.946;2022-10-23T15:16:19;97288.25;;;14.62;100.00
49311;BME280;35177;45.900;5.946;2022-10-23T15:18:44;97291.63;;;14.68;100.00
49311;BME280;35177;45.900;5.946;2022-10-23T15:21:10;97294.88;;;14.83;100.00
49311;BME280;35177;45.900;5.946;2022-10-23T15:23:38;97293.69;;;14.96;100.00
49311;BME280;35177;45.900;5.946;2022-10-23T15:26:08;97302.53;;;15.10;100.00
49311;BME280;35177;45.900;5.946;2022-10-23T15:28:35;97266.38;;;16.51;100.00
49311;BME280;35177;45.900;5.946;2022-10-23T15:31:01;97282.19;;;17.70;100.00